createdAt,value
2023-08-17T00:00:30.242Z,100408.72
2023-08-17T00:02:58.902Z,100409.56
2023-08-17T00:05:27.835Z,100404.25
2023-08-17T00:07:56.338Z,100409.22
2023-08-17T00:10:24.809Z,100411.66
2023-08-17T00:12:53.519Z,100411.84
2023-08-17T00:15:23.539Z,100427.84
2023-08-17T00:17:52.348Z,100439.44
2023-08-17T00:20:20.875Z,100441.06
2023-08-17T00:22:49.481Z,100430.44
2023-08-17T00:25:18.001Z,100437.47
2023-08-17T00:27:48.853Z,100442.56
2023-08-17T00:30:17.328Z,100457.44
2023-08-17T00:32:47.505Z,100485.66
2023-08-17T00:35:16.091Z,100555.47
2023-08-17T00:37:44.553Z,100560.34
2023-08-17T00:40:14.455Z,100552.94
2023-08-17T00:42:43.038Z,100579.97
2023-08-17T00:45:12.231Z,100584.72
2023-08-17T00:47:41.056Z,100585.75
2023-08-17T00:50:12.864Z,100586.59
2023-08-17T00:52:42.758Z,100589.91
2023-08-17T00:55:13.850Z,100585.97
2023-08-17T00:57:43.130Z,100573.31
2023-08-17T01:00:15.863Z,100568.72
2023-08-17T01:02:47.591Z,100563.94
2023-08-17T01:05:17.588Z,100571.63
2023-08-17T01:07:46.016Z,100589.66
2023-08-17T01:10:14.706Z,100579.50
2023-08-17T01:12:51.177Z,100549.91
2023-08-17T01:15:23.737Z,100493.19
2023-08-17T01:17:59.121Z,100455.75
2023-08-17T01:20:29.526Z,100481.84
2023-08-17T01:23:01.678Z,100474.16
2023-08-17T01:25:31.631Z,100464.84
2023-08-17T01:28:00.416Z,100463.78
2023-08-17T01:30:29.094Z,100453.22
2023-08-17T01:33:09.168Z,100444.34
2023-08-17T01:35:42.542Z,100443.31
2023-08-17T01:38:17.062Z,100442.50
2023-08-17T01:40:48.332Z,100441.88
2023-08-17T01:43:18.750Z,100449.56
2023-08-17T01:45:47.242Z,100451.41
2023-08-17T01:48:16.038Z,100441.88
2023-08-17T01:50:44.531Z,100445.38
2023-08-17T01:53:13.217Z,100444.34
2023-08-17T01:55:41.602Z,100440.81
2023-08-17T01:58:11.460Z,100442.03
2023-08-17T02:00:40.120Z,100457.56
2023-08-17T02:03:08.897Z,100452.78
2023-08-17T02:05:37.680Z,100450.09
2023-08-17T02:08:06.604Z,100452.78
2023-08-17T02:10:35.164Z,100437.69
2023-08-17T02:13:16.927Z,100436.22
2023-08-17T02:15:48.853Z,100437.91
2023-08-17T02:18:17.525Z,100433.34
2023-08-17T02:20:46.025Z,100421.97
2023-08-17T02:23:14.595Z,100429.41
2023-08-17T02:25:43.185Z,100419.06
2023-08-17T02:28:11.576Z,100422.38
2023-08-17T02:30:40.390Z,100423.84
2023-08-17T02:33:10.214Z,100426.72
2023-08-17T02:35:38.737Z,100409.75
2023-08-17T02:38:07.250Z,100413.91
2023-08-17T02:40:35.765Z,100414.53
2023-08-17T02:43:04.226Z,100413.06
2023-08-17T02:45:32.634Z,100419.06
2023-08-17T02:48:01.128Z,100411.41
2023-08-17T02:50:31.022Z,100408.91
2023-08-17T02:52:59.494Z,100403.13
2023-08-17T02:55:28.230Z,100410.97
2023-08-17T02:57:56.682Z,100416.59
2023-08-17T03:00:25.155Z,100413.06
2023-08-17T03:02:55.233Z,100405.63
2023-08-17T03:05:23.678Z,100417.25
2023-08-17T03:07:53.667Z,100419.75
2023-08-17T03:10:22.077Z,100403.59
2023-08-17T03:12:50.563Z,100404.41
2023-08-17T03:15:19.577Z,100405.03
2023-08-17T03:17:48.087Z,100398.19
2023-08-17T03:20:16.564Z,100408.13
2023-08-17T03:22:44.999Z,100414.34
2023-08-17T03:25:14.856Z,100424.88
2023-08-17T03:27:43.313Z,100430.91
2023-08-17T03:30:12.097Z,100437.72
2023-08-17T03:32:41.018Z,100440.41
2023-08-17T03:35:10.601Z,100437.94
2023-08-17T03:37:40.123Z,100443.34
2023-08-17T03:40:09.853Z,100449.53
2023-08-17T03:42:40.665Z,100450.38
2023-08-17T03:45:09.764Z,100447.69
2023-08-17T03:47:38.223Z,100463.44
2023-08-17T03:50:07.710Z,100463.84
2023-08-17T03:52:36.166Z,100475.44
2023-08-17T03:55:07.100Z,100469.22
2023-08-17T03:57:37.655Z,100476.88
2023-08-17T04:00:11.569Z,100478.53
2023-08-17T04:02:40.205Z,100470.25
2023-08-17T04:05:09.228Z,100467.13
2023-08-17T04:07:38.187Z,100466.09
2023-08-17T04:10:08.583Z,100459.03
2023-08-17T04:12:36.959Z,100461.13
2023-08-17T04:15:06.049Z,100468.59
2023-08-17T04:17:36.025Z,100469.22
2023-08-17T04:20:05.464Z,100471.72
2023-08-17T04:22:34.220Z,100469.22
2023-08-17T04:25:02.601Z,100478.94
2023-08-17T04:27:31.091Z,100489.72
2023-08-17T04:30:00.184Z,100496.75
2023-08-17T04:32:28.761Z,100510.00
2023-08-17T04:34:58.792Z,100533.81
2023-08-17T04:37:27.492Z,100528.63
2023-08-17T04:39:56.145Z,100541.91
2023-08-17T04:42:26.064Z,100539.00
2023-08-17T04:44:54.547Z,100539.22
2023-08-17T04:47:23.030Z,100546.88
2023-08-17T04:49:51.975Z,100539.84
2023-08-17T04:52:21.912Z,100539.00
2023-08-17T04:54:50.319Z,100544.81
2023-08-17T04:57:19.182Z,100560.72
2023-08-17T04:59:47.610Z,100567.59
2023-08-17T05:02:16.043Z,100563.63
2023-08-17T05:04:44.450Z,100538.59
2023-08-17T05:07:12.871Z,100538.19
2023-08-17T05:09:42.718Z,100540.66
2023-08-17T05:12:11.383Z,100542.53
2023-08-17T05:14:39.820Z,100541.50
2023-08-17T05:17:08.285Z,100551.25
2023-08-17T05:19:36.688Z,100546.47
2023-08-17T05:22:05.147Z,100556.84
2023-08-17T05:24:33.647Z,100551.88
2023-08-17T05:27:03.533Z,100545.03
2023-08-17T05:29:33.386Z,100552.69
2023-08-17T05:32:01.891Z,100548.97
2023-08-17T05:34:30.276Z,100544.19
2023-08-17T05:36:58.687Z,100537.97
2023-08-17T05:39:27.233Z,100544.19
2023-08-17T05:41:55.667Z,100531.97
2023-08-17T05:44:25.705Z,100525.97
2023-08-17T05:46:54.188Z,100535.69
2023-08-17T05:49:23.140Z,100535.28
2023-08-17T05:51:51.603Z,100527.81
2023-08-17T05:54:20.044Z,100525.31
2023-08-17T05:56:48.843Z,100526.97
2023-08-17T05:59:17.341Z,100519.09
2023-08-17T06:01:47.149Z,100521.13
2023-08-17T06:04:15.546Z,100526.94
2023-08-17T06:06:44.472Z,100519.88
2023-08-17T06:09:12.889Z,100528.34
2023-08-17T06:11:41.271Z,100529.78
2023-08-17T06:14:10.022Z,100523.34
2023-08-17T06:16:38.461Z,100526.25
2023-08-17T06:19:08.376Z,100524.81
2023-08-17T06:21:36.775Z,100532.47
2023-08-17T06:24:05.762Z,100540.31
2023-08-17T06:26:34.331Z,100540.13
2023-08-17T06:29:04.410Z,100538.06
2023-08-17T06:31:33.053Z,100537.63
2023-08-17T06:34:01.495Z,100534.94
2023-08-17T06:36:34.453Z,100539.66
2023-08-17T06:39:03.913Z,100537.16
2023-08-17T06:41:32.839Z,100541.34
2023-08-17T06:44:01.325Z,100541.97
2023-08-17T06:46:30.120Z,100552.94
2023-08-17T06:48:58.539Z,100554.19
2023-08-17T06:51:27.058Z,100547.13
2023-08-17T06:53:56.895Z,100548.38
2023-08-17T06:56:25.353Z,100535.53
2023-08-17T06:58:53.889Z,100540.28
2023-08-17T07:01:22.664Z,100545.88
2023-08-17T07:03:51.187Z,100543.56
2023-08-17T07:06:19.700Z,100536.72
2023-08-17T07:08:48.993Z,100547.47
2023-08-17T07:11:18.856Z,100548.72
2023-08-17T07:13:52.612Z,100563.16
2023-08-17T07:16:21.598Z,100554.47
2023-08-17T07:18:50.114Z,100554.00
2023-08-17T07:21:18.549Z,100552.72
2023-08-17T07:23:48.480Z,100557.94
2023-08-17T07:26:16.960Z,100562.28
2023-08-17T07:28:46.919Z,100561.84
2023-08-17T07:31:15.659Z,100560.38
2023-08-17T07:33:44.193Z,100564.28
2023-08-17T07:36:15.764Z,100572.56
2023-08-17T07:38:44.362Z,100570.03
2023-08-17T07:41:12.931Z,100566.47
2023-08-17T07:43:41.378Z,100568.31
2023-08-17T07:46:11.302Z,100572.84
2023-08-17T07:48:40.007Z,100561.16
2023-08-17T07:51:08.839Z,100565.53
2023-08-17T07:53:37.451Z,100556.59
2023-08-17T07:56:06.093Z,100554.72
2023-08-17T07:58:34.550Z,100531.56
2023-08-17T08:01:04.442Z,100544.97
2023-08-17T08:03:35.360Z,100548.44
2023-08-17T08:06:04.073Z,100542.75
2023-08-17T08:08:32.532Z,100551.03
2023-08-17T08:11:01.462Z,100555.34
2023-08-17T08:13:29.903Z,100541.09
2023-08-17T08:15:58.383Z,100543.69
2023-08-17T08:18:26.925Z,100539.63
2023-08-17T08:20:56.781Z,100554.75
2023-08-17T08:23:25.265Z,100549.44
2023-08-17T08:25:53.787Z,100545.16
2023-08-17T08:28:22.252Z,100547.56
2023-08-17T08:30:50.653Z,100552.22
2023-08-17T08:33:19.322Z,100550.03
2023-08-17T08:35:48.576Z,100555.06
2023-08-17T08:38:18.601Z,100565.28
2023-08-17T08:40:50.312Z,100559.03
2023-08-17T08:43:19.013Z,100566.03
2023-08-17T08:45:48.249Z,100561.53
2023-08-17T08:48:18.070Z,100561.22
2023-08-17T08:50:48.146Z,100566.97
2023-08-17T08:53:20.593Z,100568.22
2023-08-17T08:55:55.776Z,100566.63
2023-08-17T08:58:24.489Z,100561.34
2023-08-17T09:00:53.013Z,100545.09
2023-08-17T09:03:22.825Z,100564.56
2023-08-17T09:05:52.707Z,100561.03
2023-08-17T09:08:24.271Z,100564.56
2023-08-17T09:10:52.853Z,100549.97
2023-08-17T09:13:21.403Z,100553.03
2023-08-17T09:15:49.892Z,100551.97
2023-08-17T09:18:19.415Z,100550.72
2023-08-17T09:20:49.754Z,100547.81
2023-08-17T09:23:21.119Z,100547.16
2023-08-17T09:25:53.346Z,100552.25
2023-08-17T09:28:22.268Z,100553.56
2023-08-17T09:30:57.805Z,100546.50
2023-08-17T09:33:28.025Z,100548.78
2023-08-17T09:35:59.952Z,100546.16
2023-08-17T09:38:30.014Z,100544.97
2023-08-17T09:41:00.640Z,100540.38
2023-08-17T09:43:32.351Z,100538.59
2023-08-17T09:46:03.206Z,100529.50
2023-08-17T09:48:33.603Z,100520.97
2023-08-17T09:51:03.044Z,100539.00
2023-08-17T09:53:31.604Z,100537.75
2023-08-17T09:56:03.636Z,100535.06
2023-08-17T09:58:32.374Z,100534.50
2023-08-17T10:01:04.001Z,100530.44
2023-08-17T10:03:36.379Z,100525.00
2023-08-17T10:06:08.433Z,100526.47
2023-08-17T10:08:42.240Z,100523.75
2023-08-17T10:11:12.969Z,100520.03
2023-08-17T10:13:47.825Z,100523.00
2023-08-17T10:16:30.432Z,100524.09
2023-08-17T10:19:09.664Z,100514.88
2023-08-17T10:21:46.789Z,100524.06
2023-08-17T10:24:16.118Z,100513.44
2023-08-17T10:26:47.471Z,100514.00
2023-08-17T10:29:17.612Z,100512.25
2023-08-17T10:31:47.892Z,100508.31
2023-08-17T10:34:17.382Z,100509.38
2023-08-17T10:36:47.149Z,100506.19
2023-08-17T10:39:26.013Z,100503.56
2023-08-17T10:41:59.605Z,100509.25
2023-08-17T10:44:46.886Z,100499.84
2023-08-17T10:47:25.991Z,100504.59
2023-08-17T10:49:58.138Z,100498.94
2023-08-17T10:52:31.554Z,100500.84
2023-08-17T10:55:02.596Z,100497.19
2023-08-17T10:57:34.015Z,100498.63
2023-08-17T11:00:22.023Z,100497.03
2023-08-17T11:02:57.961Z,100492.19
2023-08-17T11:05:41.005Z,100487.53
2023-08-17T11:08:10.952Z,100496.00
2023-08-17T11:10:40.180Z,100494.94
2023-08-17T11:13:11.521Z,100491.25
2023-08-17T11:15:43.780Z,100488.22
2023-08-17T11:18:13.189Z,100494.00
2023-08-17T11:20:43.343Z,100492.91
2023-08-17T11:23:12.923Z,100487.72
2023-08-17T11:25:41.574Z,100483.06
2023-08-17T11:28:12.119Z,100489.06
2023-08-17T11:30:41.255Z,100485.47
2023-08-17T11:33:10.469Z,100485.38
2023-08-17T11:35:40.747Z,100486.69
2023-08-17T11:38:09.950Z,100487.78
2023-08-17T11:40:38.788Z,100491.09
2023-08-17T11:43:07.875Z,100489.38
2023-08-17T11:45:39.210Z,100480.50
2023-08-17T11:48:08.728Z,100486.25
2023-08-17T11:50:39.955Z,100488.81
2023-08-17T11:53:08.900Z,100489.81
2023-08-17T11:55:37.445Z,100496.28
2023-08-17T11:58:09.938Z,100497.16
2023-08-17T12:00:48.659Z,100486.09
2023-08-17T12:03:18.156Z,100487.53
2023-08-17T12:05:47.570Z,100494.03
2023-08-17T12:08:16.960Z,100495.19
2023-08-17T12:10:47.483Z,100486.19
2023-08-17T12:13:16.062Z,100489.81
2023-08-17T12:15:46.243Z,100481.09
2023-08-17T12:18:15.086Z,100481.53
2023-08-17T12:20:44.544Z,100476.03
2023-08-17T12:23:15.134Z,100481.34
2023-08-17T12:25:43.696Z,100468.84
2023-08-17T12:28:15.202Z,100467.28
2023-08-17T12:30:43.847Z,100470.88
2023-08-17T12:33:13.894Z,100465.72
2023-08-17T12:35:42.456Z,100463.63
2023-08-17T12:38:10.996Z,100460.44
2023-08-17T12:40:39.450Z,100446.09
2023-08-17T12:43:07.941Z,100442.41
2023-08-17T12:45:36.428Z,100440.16
2023-08-17T12:48:05.125Z,100444.34
2023-08-17T12:50:35.217Z,100429.38
2023-08-17T12:53:03.682Z,100420.53
2023-08-17T12:55:32.181Z,100408.41
2023-08-17T12:58:02.127Z,100406.84
2023-08-17T13:00:30.797Z,100401.06
2023-08-17T13:02:59.267Z,100393.09
2023-08-17T13:05:27.810Z,100388.13
2023-08-17T13:07:57.939Z,100403.03
2023-08-17T13:10:26.434Z,100399.47
2023-08-17T13:12:57.775Z,100394.66
2023-08-17T13:15:26.270Z,100392.19
2023-08-17T13:17:54.732Z,100403.75
2023-08-17T13:20:23.853Z,100404.03
2023-08-17T13:22:52.321Z,100404.03
2023-08-17T13:25:22.137Z,100398.84
2023-08-17T13:27:50.590Z,100408.84
2023-08-17T13:30:19.190Z,100406.69
2023-08-17T13:32:47.924Z,100414.25
2023-08-17T13:35:16.671Z,100415.69
2023-08-17T13:37:45.120Z,100420.91
2023-08-17T13:40:14.101Z,100418.13
2023-08-17T13:42:44.120Z,100424.06
2023-08-17T13:45:12.777Z,100422.22
2023-08-17T13:47:41.198Z,100422.09
2023-08-17T13:50:10.472Z,100411.03
2023-08-17T13:52:38.953Z,100426.09
2023-08-17T13:55:08.531Z,100421.47
2023-08-17T13:57:37.226Z,100423.25
2023-08-17T14:00:08.481Z,100429.56
2023-08-17T14:02:37.490Z,100428.88
2023-08-17T14:05:07.273Z,100439.81
2023-08-17T14:07:35.706Z,100440.81
2023-08-17T14:10:10.532Z,100431.91
2023-08-17T14:12:40.864Z,100429.50
2023-08-17T14:15:11.724Z,100420.59
2023-08-17T14:17:40.150Z,100417.69
2023-08-17T14:20:09.839Z,100420.31
2023-08-17T14:22:38.265Z,100427.19
2023-08-17T14:25:07.589Z,100422.03
2023-08-17T14:27:35.970Z,100426.50
2023-08-17T14:30:05.287Z,100423.59
2023-08-17T14:32:35.763Z,100422.59
2023-08-17T14:35:04.976Z,100423.50
2023-08-17T14:37:33.623Z,100429.94
2023-08-17T14:40:02.353Z,100423.53
2023-08-17T14:42:30.989Z,100424.06
2023-08-17T14:44:59.462Z,100427.38
2023-08-17T14:47:28.294Z,100439.16
2023-08-17T14:49:58.391Z,100476.78
2023-08-17T14:52:33.813Z,100518.09
2023-08-17T14:55:02.933Z,100520.81
2023-08-17T14:57:31.313Z,100518.22
2023-08-17T15:00:00.053Z,100522.91
2023-08-17T15:02:29.152Z,100530.44
2023-08-17T15:04:59.116Z,100544.81
2023-08-17T15:07:27.982Z,100567.22
2023-08-17T15:09:56.648Z,100577.53
2023-08-17T15:12:25.304Z,100592.47
2023-08-17T15:14:53.831Z,100575.31
2023-08-17T15:17:22.373Z,100567.78
2023-08-17T15:19:50.940Z,100558.50
2023-08-17T15:22:20.981Z,100550.13
2023-08-17T15:24:49.376Z,100544.66
2023-08-17T15:27:17.914Z,100540.06
2023-08-17T15:29:46.445Z,100537.47
2023-08-17T15:32:14.907Z,100518.91
2023-08-17T15:34:43.553Z,100519.00
2023-08-17T15:37:12.655Z,100500.69
2023-08-17T15:39:42.577Z,100502.75
2023-08-17T15:42:11.065Z,100485.47
2023-08-17T15:44:39.675Z,100493.66
2023-08-17T15:47:08.262Z,100486.50
2023-08-17T15:49:36.744Z,100479.84
2023-08-17T15:52:06.538Z,100484.63
2023-08-17T15:54:36.791Z,100466.56
2023-08-17T15:57:07.661Z,100461.84
2023-08-17T15:59:37.467Z,100463.47
2023-08-17T16:02:06.108Z,100464.44
2023-08-17T16:04:34.933Z,100461.84
2023-08-17T16:07:03.427Z,100462.78
2023-08-17T16:09:31.973Z,100451.13
2023-08-17T16:12:00.487Z,100447.94
2023-08-17T16:14:30.302Z,100455.25
2023-08-17T16:17:02.523Z,100448.06
2023-08-17T16:19:30.999Z,100442.50
2023-08-17T16:21:59.621Z,100442.25
2023-08-17T16:24:28.062Z,100445.69
2023-08-17T16:26:57.144Z,100433.50
2023-08-17T16:29:25.628Z,100432.53
2023-08-17T16:32:09.407Z,100417.81
2023-08-17T16:34:38.264Z,100420.72
2023-08-17T16:37:06.976Z,100417.38
2023-08-17T16:39:35.384Z,100422.47
2023-08-17T16:42:03.945Z,100412.75
2023-08-17T16:44:32.397Z,100405.75
2023-08-17T16:47:00.814Z,100403.63
2023-08-17T16:49:30.962Z,100393.34
2023-08-17T16:52:01.468Z,100401.97
2023-08-17T16:54:30.046Z,100392.75
2023-08-17T16:56:58.463Z,100393.81
2023-08-17T16:59:27.144Z,100401.16
2023-08-17T17:01:56.216Z,100396.94
2023-08-17T17:04:24.849Z,100404.50
2023-08-17T17:06:55.657Z,100402.16
2023-08-17T17:09:24.361Z,100416.00
2023-08-17T17:11:53.235Z,100397.22
2023-08-17T17:14:21.725Z,100404.78
2023-08-17T17:16:50.140Z,100385.69
2023-08-17T17:19:19.403Z,100400.47
2023-08-17T17:21:48.077Z,100396.59
2023-08-17T17:24:18.117Z,100392.00
2023-08-17T17:26:46.587Z,100385.13
2023-08-17T17:29:15.350Z,100377.66
2023-08-17T17:31:43.796Z,100378.25
2023-08-17T17:34:12.602Z,100378.34
2023-08-17T17:36:41.038Z,100375.13
2023-08-17T17:39:09.567Z,100386.00
2023-08-17T17:41:40.260Z,100389.41
2023-08-17T17:44:08.659Z,100392.88
2023-08-17T17:46:37.189Z,100400.94
2023-08-17T17:49:05.719Z,100404.72
2023-08-17T17:51:34.436Z,100412.25
2023-08-17T17:54:02.936Z,100411.91
2023-08-17T17:56:43.315Z,100407.81
2023-08-17T17:59:12.534Z,100393.41
2023-08-17T18:01:41.608Z,100410.06
2023-08-17T18:04:10.945Z,100413.13
2023-08-17T18:06:39.489Z,100428.59
2023-08-17T18:09:07.904Z,100422.47
2023-08-17T18:11:36.653Z,100424.13
2023-08-17T18:14:09.360Z,100424.34
2023-08-17T18:16:37.850Z,100422.84
2023-08-17T18:19:06.926Z,100421.66
2023-08-17T18:21:36.424Z,100424.00
2023-08-17T18:24:05.372Z,100425.34
2023-08-17T18:26:36.403Z,100432.16
2023-08-17T18:29:06.939Z,100433.56
2023-08-17T18:31:38.060Z,100434.97
2023-08-17T18:34:06.667Z,100422.47
2023-08-17T18:36:35.661Z,100419.19
2023-08-17T18:39:04.186Z,100424.25
2023-08-17T18:41:32.928Z,100416.25
2023-08-17T18:44:01.413Z,100404.91
2023-08-17T18:46:31.290Z,100410.94
2023-08-17T18:48:59.738Z,100422.47
2023-08-17T18:51:28.986Z,100424.13
2023-08-17T18:53:57.431Z,100428.94
2023-08-17T18:56:26.021Z,100423.66
2023-08-17T18:58:56.136Z,100441.44
2023-08-17T19:01:24.556Z,100435.88
2023-08-17T19:03:54.731Z,100431.16
2023-08-17T19:06:23.154Z,100430.56
2023-08-17T19:08:51.907Z,100427.50
2023-08-17T19:11:20.304Z,100430.09
2023-08-17T19:13:49.229Z,100427.22
2023-08-17T19:16:17.750Z,100443.13
2023-08-17T19:18:46.486Z,100442.53
2023-08-17T19:21:16.384Z,100436.53
2023-08-17T19:23:44.869Z,100442.53
2023-08-17T19:26:13.354Z,100430.19
2023-08-17T19:28:41.851Z,100434.91
2023-08-17T19:31:10.560Z,100436.31
2023-08-17T19:33:39.426Z,100440.69
2023-08-17T19:36:08.618Z,100433.41
2023-08-17T19:38:38.591Z,100424.53
2023-08-17T19:41:06.991Z,100444.69
2023-08-17T19:43:35.432Z,100433.09
2023-08-17T19:46:03.936Z,100432.38
2023-08-17T19:48:32.393Z,100434.34
2023-08-17T19:51:00.807Z,100434.19
2023-08-17T19:53:29.283Z,100424.22
2023-08-17T19:56:00.944Z,100438.50
2023-08-17T19:58:29.622Z,100431.41
2023-08-17T20:01:06.409Z,100422.91
2023-08-17T20:03:35.180Z,100432.47
2023-08-17T20:06:04.216Z,100432.94
2023-08-17T20:08:32.740Z,100421.38
2023-08-17T20:11:09.734Z,100420.66
2023-08-17T20:13:38.237Z,100415.09
2023-08-17T20:16:07.060Z,100419.53
2023-08-17T20:18:35.511Z,100416.34
2023-08-17T20:21:05.160Z,100415.59
2023-08-17T20:23:33.987Z,100421.47
2023-08-17T20:26:03.925Z,100419.06
2023-08-17T20:28:32.327Z,100418.94
2023-08-17T20:31:01.512Z,100424.81
2023-08-17T20:33:30.008Z,100421.28
2023-08-17T20:35:58.511Z,100427.75
2023-08-17T20:38:27.187Z,100422.78
2023-08-17T20:40:57.066Z,100428.66
2023-08-17T20:43:27.840Z,100429.72
2023-08-17T20:45:56.415Z,100429.09
2023-08-17T20:48:26.038Z,100420.41
2023-08-17T20:50:58.285Z,100416.50
2023-08-17T20:53:27.734Z,100414.84
2023-08-17T20:55:56.118Z,100408.16
2023-08-17T20:58:24.604Z,100412.88
2023-08-17T21:00:58.039Z,100402.38
2023-08-17T21:03:26.806Z,100429.69
2023-08-17T21:05:55.452Z,100433.97
2023-08-17T21:08:23.979Z,100439.06
2023-08-17T21:10:52.544Z,100429.81
2023-08-17T21:13:21.522Z,100405.88
2023-08-17T21:15:52.720Z,100419.28
2023-08-17T21:18:22.738Z,100428.94
2023-08-17T21:20:51.680Z,100435.75
2023-08-17T21:23:20.128Z,100435.13
2023-08-17T21:25:52.506Z,100431.75
2023-08-17T21:28:21.635Z,100418.84
2023-08-17T21:30:50.712Z,100427.44
2023-08-17T21:33:19.174Z,100429.09
2023-08-17T21:35:49.494Z,100425.75
2023-08-17T21:38:18.116Z,100418.69
2023-08-17T21:40:46.602Z,100433.94
2023-08-17T21:43:15.095Z,100425.63
2023-08-17T21:45:43.512Z,100433.91
2023-08-17T21:48:12.199Z,100436.81
2023-08-17T21:50:40.670Z,100433.47
2023-08-17T21:53:10.911Z,100425.53
2023-08-17T21:55:39.337Z,100433.84
2023-08-17T21:58:07.796Z,100440.53
2023-08-17T22:00:36.335Z,100439.91
2023-08-17T22:03:06.373Z,100451.75
2023-08-17T22:05:34.905Z,100450.31
2023-08-17T22:08:03.431Z,100454.28
2023-08-17T22:10:33.797Z,100454.06
2023-08-17T22:13:02.296Z,100449.94
2023-08-17T22:15:31.030Z,100452.03
2023-08-17T22:17:59.469Z,100445.63
2023-08-17T22:20:28.133Z,100448.28
2023-08-17T22:22:56.547Z,100443.94
2023-08-17T22:25:25.121Z,100451.41
2023-08-17T22:27:55.097Z,100443.16
2023-08-17T22:30:23.575Z,100445.00
2023-08-17T22:32:52.293Z,100439.25
2023-08-17T22:35:20.744Z,100445.69
2023-08-17T22:37:49.223Z,100440.72
2023-08-17T22:40:17.828Z,100446.94
2023-08-17T22:42:46.294Z,100444.91
2023-08-17T22:45:16.316Z,100461.47
2023-08-17T22:47:44.758Z,100461.47
2023-08-17T22:50:13.154Z,100474.59
2023-08-17T22:52:42.836Z,100459.56
2023-08-17T22:55:11.399Z,100475.94
2023-08-17T22:57:40.140Z,100477.44
2023-08-17T23:00:10.373Z,100476.63
2023-08-17T23:02:40.810Z,100481.41
2023-08-17T23:05:10.326Z,100484.53
2023-08-17T23:07:38.892Z,100492.00
2023-08-17T23:10:08.465Z,100493.47
2023-08-17T23:12:36.910Z,100499.50
2023-08-17T23:15:05.881Z,100503.69
2023-08-17T23:17:34.698Z,100510.81
2023-08-17T23:20:04.978Z,100512.91
2023-08-17T23:22:33.562Z,100521.19
2023-08-17T23:25:02.026Z,100517.88
2023-08-17T23:27:30.726Z,100511.06
2023-08-17T23:29:59.537Z,100499.44
2023-08-17T23:32:28.889Z,100497.56
2023-08-17T23:34:57.541Z,100499.22
2023-08-17T23:37:27.650Z,100484.50
2023-08-17T23:39:56.463Z,100479.50
2023-08-17T23:42:24.882Z,100466.88
2023-08-17T23:44:53.346Z,100461.91
2023-08-17T23:47:21.828Z,100456.09
2023-08-17T23:49:50.661Z,100453.59
2023-08-17T23:52:19.166Z,100448.19
2023-08-17T23:54:48.960Z,100448.19
2023-08-17T23:57:17.417Z,100436.19
2023-08-17T23:59:45.852Z,100439.50
